createdAt,value
2019-02-12T00:00:04.460Z,0.00
2019-02-12T00:01:36.282Z,0.00
2019-02-12T00:03:08.292Z,0.00
2019-02-12T00:04:40.222Z,0.00
2019-02-12T00:06:12.046Z,0.00
2019-02-12T00:07:43.671Z,0.00
2019-02-12T00:09:16.108Z,0.00
2019-02-12T00:10:47.314Z,0.00
2019-02-12T00:12:19.074Z,0.00
2019-02-12T00:13:50.904Z,0.00
2019-02-12T00:15:22.814Z,0.00
2019-02-12T00:16:54.567Z,0.00
2019-02-12T00:18:26.292Z,0.00
2019-02-12T00:19:58.441Z,0.00
2019-02-12T00:21:30.091Z,0.00
2019-02-12T00:23:02.526Z,0.00
2019-02-12T00:24:34.440Z,0.00
2019-02-12T00:26:05.602Z,0.00
2019-02-12T00:27:37.219Z,0.00
2019-02-12T00:29:09.021Z,0.00
2019-02-12T00:30:40.839Z,0.00
2019-02-12T00:32:12.668Z,0.00
2019-02-12T00:33:44.871Z,0.00
2019-02-12T00:35:16.393Z,0.00
2019-02-12T00:36:48.435Z,0.00
2019-02-12T00:38:20.200Z,0.00
2019-02-12T00:39:51.756Z,0.00
2019-02-12T00:41:23.703Z,0.00
2019-02-12T00:42:55.459Z,0.00
2019-02-12T00:44:27.205Z,0.00
2019-02-12T00:45:59.067Z,0.00
2019-02-12T00:47:30.846Z,0.00
2019-02-12T00:49:02.816Z,0.00
2019-02-12T00:50:34.585Z,0.00
2019-02-12T00:52:06.313Z,0.00
2019-02-12T00:53:38.868Z,0.00
2019-02-12T00:55:09.939Z,0.00
2019-02-12T00:56:41.769Z,0.00
2019-02-12T00:58:13.572Z,0.00
2019-02-12T00:59:45.409Z,0.00
2019-02-12T01:01:17.210Z,0.00
2019-02-12T01:02:49.237Z,0.00
2019-02-12T01:04:20.847Z,0.00
2019-02-12T01:05:52.670Z,0.00
2019-02-12T01:07:24.486Z,0.00
2019-02-12T01:08:56.302Z,0.00
2019-02-12T01:10:28.123Z,0.00
2019-02-12T01:12:00.041Z,0.00
2019-02-12T01:13:31.771Z,0.00
2019-02-12T01:15:03.578Z,0.00
2019-02-12T01:16:35.395Z,0.00
2019-02-12T01:18:07.216Z,0.00
2019-02-12T01:19:39.033Z,0.00
2019-02-12T01:21:11.237Z,0.00
2019-02-12T01:22:42.679Z,0.00
2019-02-12T01:24:14.489Z,0.00
2019-02-12T01:25:46.307Z,0.00
2019-02-12T01:27:18.126Z,0.00
2019-02-12T01:28:49.967Z,0.00
2019-02-12T01:30:21.864Z,0.00
2019-02-12T01:31:53.581Z,0.00
2019-02-12T01:33:25.399Z,0.00
2019-02-12T01:34:57.218Z,0.00
2019-02-12T01:36:29.043Z,0.00
2019-02-12T01:38:00.855Z,0.00
2019-02-12T01:39:32.676Z,0.00
2019-02-12T01:41:04.492Z,0.00
2019-02-12T01:42:36.310Z,0.00
2019-02-12T01:44:08.129Z,0.00
2019-02-12T01:45:39.947Z,0.00
2019-02-12T01:47:11.766Z,0.00
2019-02-12T01:48:43.684Z,0.00
2019-02-12T01:50:15.402Z,0.00
2019-02-12T01:51:47.221Z,0.00
2019-02-12T01:53:19.047Z,0.00
2019-02-12T01:54:50.857Z,0.00
2019-02-12T01:56:22.678Z,0.00
2019-02-12T01:57:54.496Z,0.00
2019-02-12T01:59:26.311Z,0.00
2019-02-12T02:00:58.129Z,0.00
2019-02-12T02:02:29.948Z,0.00
2019-02-12T02:04:01.772Z,0.00
2019-02-12T02:05:33.634Z,0.00
2019-02-12T02:07:05.501Z,0.00
2019-02-12T02:08:37.219Z,0.00
2019-02-12T02:10:09.038Z,0.00
2019-02-12T02:11:40.858Z,0.00
2019-02-12T02:13:12.673Z,0.00
2019-02-12T02:14:44.491Z,0.00
2019-02-12T02:16:16.318Z,0.00
2019-02-12T02:17:48.865Z,0.00
2019-02-12T02:19:19.946Z,0.00
2019-02-12T02:20:51.762Z,0.00
2019-02-12T02:22:23.581Z,0.00
2019-02-12T02:23:55.398Z,0.00
2019-02-12T02:25:27.316Z,0.00
2019-02-12T02:26:59.033Z,0.00
2019-02-12T02:28:30.854Z,0.00
2019-02-12T02:30:02.671Z,0.00
2019-02-12T02:31:34.489Z,0.00
2019-02-12T02:33:06.374Z,0.00
2019-02-12T02:34:38.123Z,0.00
2019-02-12T02:36:09.946Z,0.00
2019-02-12T02:37:41.759Z,0.00
2019-02-12T02:39:13.576Z,0.00
2019-02-12T02:40:45.393Z,0.00
2019-02-12T02:42:17.212Z,0.00
2019-02-12T02:43:49.129Z,0.00
2019-02-12T02:45:20.846Z,0.00
2019-02-12T02:46:52.664Z,0.00
2019-02-12T02:48:24.482Z,0.00
2019-02-12T02:49:56.301Z,0.00
2019-02-12T02:51:28.117Z,0.00
2019-02-12T02:52:59.941Z,0.00
2019-02-12T02:54:31.752Z,0.00
2019-02-12T02:56:03.570Z,0.00
2019-02-12T02:57:35.394Z,0.00
2019-02-12T02:59:07.204Z,0.00
2019-02-12T03:00:39.022Z,0.00
2019-02-12T03:02:10.940Z,0.00
2019-02-12T03:03:42.658Z,0.00
2019-02-12T03:05:14.474Z,0.00
2019-02-12T03:06:46.292Z,0.00
2019-02-12T03:08:18.126Z,0.00
2019-02-12T03:11:21.743Z,0.00
2019-02-12T03:12:53.562Z,0.00
2019-02-12T03:14:25.379Z,0.00
2019-02-12T03:15:57.197Z,0.00
2019-02-12T03:17:29.016Z,0.00
2019-02-12T03:19:00.838Z,0.00
2019-02-12T03:20:32.800Z,0.00
2019-02-12T03:22:04.468Z,0.00
2019-02-12T03:23:36.291Z,0.00
2019-02-12T03:25:08.104Z,0.00
2019-02-12T03:26:39.929Z,0.00
2019-02-12T03:28:11.738Z,0.00
2019-02-12T03:29:43.557Z,0.00
2019-02-12T03:31:15.375Z,0.00
2019-02-12T03:32:47.196Z,0.00
2019-02-12T03:34:19.014Z,0.00
2019-02-12T03:35:50.829Z,0.00
2019-02-12T03:37:22.644Z,0.00
2019-02-12T03:38:54.568Z,0.00
2019-02-12T03:40:26.279Z,0.00
2019-02-12T03:41:58.096Z,0.00
2019-02-12T03:43:29.917Z,0.00
2019-02-12T03:45:01.732Z,0.00
2019-02-12T03:46:33.549Z,0.00
2019-02-12T03:48:05.366Z,0.00
2019-02-12T03:49:37.183Z,0.00
2019-02-12T03:51:09.000Z,0.00
2019-02-12T03:52:40.819Z,0.00
2019-02-12T03:54:12.637Z,0.00
2019-02-12T03:55:44.453Z,0.00
2019-02-12T03:57:16.373Z,0.00
2019-02-12T03:58:48.594Z,0.00
2019-02-12T04:00:19.905Z,0.00
2019-02-12T04:01:51.723Z,0.00
2019-02-12T04:03:23.540Z,0.00
2019-02-12T04:04:55.362Z,0.00
2019-02-12T04:06:27.179Z,0.00
2019-02-12T04:07:58.992Z,0.00
2019-02-12T04:09:30.810Z,0.00
2019-02-12T04:11:02.628Z,0.00
2019-02-12T04:12:34.445Z,0.00
2019-02-12T04:14:06.265Z,0.00
2019-02-12T04:15:38.181Z,0.00
2019-02-12T04:17:09.897Z,0.00
2019-02-12T04:18:41.723Z,0.00
2019-02-12T04:20:13.539Z,0.00
2019-02-12T04:21:45.352Z,0.00
2019-02-12T04:23:17.167Z,0.00
2019-02-12T04:24:48.986Z,0.00
2019-02-12T04:26:20.801Z,0.00
2019-02-12T04:27:52.618Z,0.00
2019-02-12T04:29:24.435Z,0.00
2019-02-12T04:30:56.257Z,0.00
2019-02-12T04:32:28.070Z,0.00
2019-02-12T04:33:59.988Z,0.00
2019-02-12T04:35:31.705Z,0.00
2019-02-12T04:37:03.523Z,0.00
2019-02-12T04:38:35.339Z,0.00
2019-02-12T04:40:07.157Z,0.00
2019-02-12T04:41:38.974Z,0.00
2019-02-12T04:43:10.792Z,0.00
2019-02-12T04:44:42.609Z,0.00
2019-02-12T04:46:14.426Z,0.00
2019-02-12T04:47:46.317Z,0.00
2019-02-12T04:49:18.061Z,0.00
2019-02-12T04:52:21.800Z,0.00
2019-02-12T04:53:53.514Z,0.00
2019-02-12T04:55:25.331Z,0.00
2019-02-12T04:56:57.147Z,0.00
2019-02-12T04:58:28.967Z,0.00
2019-02-12T05:00:00.783Z,0.00
2019-02-12T05:01:32.604Z,0.00
2019-02-12T05:03:04.417Z,0.00
2019-02-12T05:04:36.234Z,0.00
2019-02-12T05:07:39.873Z,0.00
2019-02-12T05:09:11.687Z,0.00
2019-02-12T05:10:43.605Z,0.00
2019-02-12T05:12:15.326Z,0.00
2019-02-12T05:13:47.138Z,0.00
2019-02-12T05:15:18.968Z,0.00
2019-02-12T05:16:50.773Z,0.00
2019-02-12T05:18:22.592Z,0.00
2019-02-12T05:19:54.408Z,0.00
2019-02-12T05:21:26.226Z,0.00
2019-02-12T05:22:58.045Z,0.00
2019-02-12T05:24:29.860Z,0.00
2019-02-12T05:26:01.679Z,0.00
2019-02-12T05:27:33.495Z,0.00
2019-02-12T05:29:05.414Z,0.00
2019-02-12T05:30:37.130Z,0.00
2019-02-12T05:32:08.952Z,0.00
2019-02-12T05:33:40.769Z,0.00
2019-02-12T05:35:12.584Z,0.00
2019-02-12T05:36:44.400Z,0.00
2019-02-12T05:38:16.219Z,0.00
2019-02-12T05:39:48.036Z,0.00
2019-02-12T05:41:19.853Z,0.00
2019-02-12T05:42:51.669Z,0.00
2019-02-12T05:44:23.488Z,0.00
2019-02-12T05:45:55.304Z,0.00
2019-02-12T05:47:27.226Z,0.00
2019-02-12T05:48:58.939Z,0.00
2019-02-12T05:50:30.756Z,0.00
2019-02-12T05:52:02.583Z,0.00
2019-02-12T05:53:34.394Z,0.00
2019-02-12T05:55:06.217Z,0.00
2019-02-12T05:56:38.027Z,0.00
2019-02-12T05:58:09.846Z,0.00
2019-02-12T05:59:41.665Z,0.00
2019-02-12T06:01:13.482Z,0.00
2019-02-12T06:02:45.298Z,0.00
2019-02-12T06:04:17.116Z,0.00
2019-02-12T06:05:49.033Z,0.00
2019-02-12T06:07:20.787Z,0.00
2019-02-12T06:08:52.598Z,0.00
2019-02-12T06:10:24.386Z,0.00
2019-02-12T06:11:56.204Z,0.00
2019-02-12T06:13:28.020Z,0.00
2019-02-12T06:14:59.854Z,0.00
2019-02-12T06:16:31.655Z,0.00
2019-02-12T06:18:03.477Z,0.00
2019-02-12T06:19:35.290Z,0.00
2019-02-12T06:21:07.108Z,0.00
2019-02-12T06:22:38.939Z,0.00
2019-02-12T06:24:10.844Z,0.00
2019-02-12T06:25:42.561Z,0.00
2019-02-12T06:27:14.385Z,0.00
2019-02-12T06:28:46.199Z,0.00
2019-02-12T06:30:18.014Z,0.00
2019-02-12T06:33:21.654Z,0.00
2019-02-12T06:34:53.469Z,0.00
2019-02-12T06:36:25.283Z,0.00
2019-02-12T06:37:57.100Z,0.00
2019-02-12T06:39:28.917Z,0.00
2019-02-12T06:41:00.734Z,0.00
2019-02-12T06:42:32.652Z,0.00
2019-02-12T06:44:04.368Z,0.00
2019-02-12T06:45:36.186Z,0.00
2019-02-12T06:47:08.005Z,0.00
2019-02-12T06:48:39.818Z,0.00
2019-02-12T06:50:11.635Z,0.00
2019-02-12T06:51:43.451Z,0.00
2019-02-12T06:53:15.268Z,0.00
2019-02-12T06:54:47.184Z,0.00
2019-02-12T06:56:18.900Z,0.00
2019-02-12T06:57:50.716Z,0.00
2019-02-12T06:59:22.534Z,0.00
2019-02-12T07:00:54.449Z,0.00
2019-02-12T07:02:26.163Z,0.00
2019-02-12T07:03:57.981Z,0.00
2019-02-12T07:05:29.798Z,0.00
2019-02-12T07:07:01.612Z,0.00
2019-02-12T07:08:33.428Z,0.00
2019-02-12T07:10:05.254Z,0.00
2019-02-12T07:11:37.071Z,0.00
2019-02-12T07:13:08.891Z,0.00
2019-02-12T07:14:40.689Z,0.00
2019-02-12T07:16:12.504Z,0.00
2019-02-12T07:17:44.327Z,0.00
2019-02-12T07:19:16.247Z,0.00
2019-02-12T07:20:47.951Z,0.00
2019-02-12T07:22:19.768Z,0.00
2019-02-12T07:23:51.586Z,0.00
2019-02-12T07:25:23.405Z,0.00
2019-02-12T07:26:55.215Z,0.00
2019-02-12T07:28:27.031Z,0.00
2019-02-12T07:29:58.859Z,0.00
2019-02-12T07:31:30.670Z,0.00
2019-02-12T07:33:02.477Z,0.00
2019-02-12T07:34:34.297Z,0.00
2019-02-12T07:36:06.124Z,0.00
2019-02-12T07:37:38.031Z,0.00
2019-02-12T07:39:09.739Z,0.00
2019-02-12T07:40:41.560Z,0.00
2019-02-12T07:42:13.375Z,0.00
2019-02-12T07:43:45.712Z,0.00
2019-02-12T07:45:17.005Z,0.00
2019-02-12T07:46:48.823Z,0.00
2019-02-12T07:48:20.637Z,0.00
2019-02-12T07:49:52.453Z,0.00
2019-02-12T07:51:24.269Z,0.00
2019-02-12T07:52:56.090Z,0.00
2019-02-12T07:54:27.908Z,0.00
2019-02-12T07:55:59.828Z,0.00
2019-02-12T07:57:31.550Z,0.00
2019-02-12T07:59:03.360Z,0.00
2019-02-12T08:00:35.159Z,0.00
2019-02-12T08:02:07.029Z,0.00
2019-02-12T08:03:38.828Z,0.00
2019-02-12T08:05:10.608Z,0.00
2019-02-12T08:06:42.421Z,0.00
2019-02-12T08:08:14.243Z,0.00
2019-02-12T08:09:46.094Z,0.00
2019-02-12T08:11:17.868Z,0.00
2019-02-12T08:12:49.894Z,0.00
2019-02-12T08:14:21.609Z,0.00
2019-02-12T08:15:53.345Z,0.00
2019-02-12T08:17:25.129Z,0.00
2019-02-12T08:18:56.948Z,0.00
2019-02-12T08:20:28.762Z,0.00
2019-02-12T08:22:00.590Z,0.00
2019-02-12T08:23:41.035Z,0.00
2019-02-12T08:25:04.207Z,0.00
2019-02-12T08:26:36.041Z,0.00
2019-02-12T08:28:07.839Z,0.00
2019-02-12T08:29:39.661Z,0.00
2019-02-12T08:31:11.468Z,0.00
2019-02-12T08:32:43.404Z,0.00
2019-02-12T08:34:15.112Z,0.00
2019-02-12T08:35:46.943Z,0.00
2019-02-12T08:37:18.731Z,4.00
2019-02-12T08:40:22.453Z,4.00
2019-02-12T08:41:54.486Z,4.00
2019-02-12T08:43:26.030Z,8.00
2019-02-12T08:44:57.872Z,12.00
2019-02-12T08:46:29.625Z,16.00
2019-02-12T08:48:01.624Z,20.00
2019-02-12T08:49:33.256Z,24.00
2019-02-12T08:51:05.143Z,32.00
2019-02-12T08:52:37.042Z,36.00
2019-02-12T08:54:08.716Z,44.00
2019-02-12T08:55:40.521Z,48.00
2019-02-12T08:57:12.331Z,56.00
2019-02-12T08:58:44.171Z,68.00
2019-02-12T09:00:15.972Z,84.00
2019-02-12T09:01:47.785Z,104.00
2019-02-12T09:03:19.661Z,136.00
2019-02-12T09:04:51.446Z,164.00
2019-02-12T09:06:23.226Z,200.00
2019-02-12T09:07:55.040Z,236.00
2019-02-12T09:09:27.159Z,280.00
2019-02-12T09:10:58.779Z,328.00
2019-02-12T09:12:30.495Z,380.00
2019-02-12T09:14:02.356Z,432.00
2019-02-12T09:15:34.214Z,496.00
2019-02-12T09:17:06.112Z,572.00
2019-02-12T09:18:37.748Z,644.00
2019-02-12T09:20:09.789Z,720.00
2019-02-12T09:21:41.684Z,784.00
2019-02-12T09:23:13.452Z,840.00
2019-02-12T09:24:45.010Z,948.00
2019-02-12T09:26:16.852Z,1052.00
2019-02-12T09:27:48.660Z,1120.00
2019-02-12T09:29:20.557Z,1180.00
2019-02-12T09:30:52.593Z,1232.00
2019-02-12T09:32:24.088Z,1276.00
2019-02-12T09:33:56.149Z,1324.00
2019-02-12T09:35:27.719Z,1376.00
2019-02-12T09:36:59.859Z,1452.00
2019-02-12T09:38:31.665Z,1548.00
2019-02-12T09:40:03.175Z,1644.00
2019-02-12T09:41:35.000Z,1740.00
2019-02-12T09:43:06.809Z,1856.00
2019-02-12T09:44:38.837Z,1984.00
2019-02-12T09:47:42.350Z,2288.00
2019-02-12T09:49:14.096Z,2464.00
2019-02-12T09:50:45.920Z,2668.00
2019-02-12T09:52:17.813Z,2888.00
2019-02-12T09:53:49.565Z,3132.00
2019-02-12T09:55:21.453Z,3388.00
2019-02-12T09:58:25.549Z,3884.00
2019-02-12T10:01:28.620Z,4340.00
2019-02-12T10:03:00.870Z,4588.00
2019-02-12T10:04:32.232Z,4864.00
2019-02-12T10:06:05.668Z,5208.00
2019-02-12T10:07:36.052Z,5592.00
2019-02-12T10:09:07.842Z,6028.00
2019-02-12T10:10:40.267Z,6500.00
2019-02-12T10:12:11.742Z,6992.00
2019-02-12T10:13:43.181Z,7492.00
2019-02-12T10:15:15.088Z,8028.00
2019-02-12T10:16:47.281Z,8560.00
2019-02-12T10:18:19.543Z,9072.00
2019-02-12T10:19:51.047Z,9552.00
2019-02-12T10:21:22.369Z,9992.00
2019-02-12T10:22:54.961Z,10432.00
2019-02-12T10:24:25.855Z,10832.00
2019-02-12T10:25:58.854Z,11224.00
2019-02-12T10:27:29.754Z,11620.00
2019-02-12T10:30:35.808Z,12404.00
2019-02-12T10:32:08.615Z,12780.00
2019-02-12T10:33:36.764Z,13116.00
2019-02-12T10:35:08.912Z,13396.00
2019-02-12T10:36:40.866Z,13592.00
2019-02-12T10:39:44.344Z,13988.00
2019-02-12T10:41:16.446Z,14160.00
2019-02-12T10:42:48.153Z,14336.00
2019-02-12T10:44:19.718Z,14584.00
2019-02-12T10:45:52.670Z,14832.00
2019-02-12T10:47:24.481Z,15092.00
2019-02-12T10:48:55.092Z,15392.00
2019-02-12T10:50:28.259Z,15684.00
2019-02-12T10:51:58.936Z,15976.00
2019-02-12T10:53:30.846Z,16308.00
2019-02-12T10:55:02.455Z,16736.00
2019-02-12T10:56:34.754Z,17092.00
2019-02-12T10:58:06.365Z,17536.00
2019-02-12T10:59:37.750Z,17760.00
2019-02-12T11:01:10.503Z,17952.00
2019-02-12T11:02:42.118Z,18144.00
2019-02-12T11:04:13.876Z,18304.00
2019-02-12T11:05:50.192Z,18592.00
2019-02-12T11:07:17.477Z,19008.00
2019-02-12T11:10:22.179Z,20128.00
2019-02-12T11:11:53.406Z,20704.00
2019-02-12T11:13:24.338Z,21216.00
2019-02-12T11:16:27.999Z,22304.00
2019-02-12T11:18:00.084Z,22688.00
2019-02-12T11:19:32.054Z,22912.00
2019-02-12T11:21:11.545Z,23264.00
2019-02-12T11:22:35.369Z,22656.00
2019-02-12T11:24:06.923Z,22048.00
2019-02-12T11:25:40.414Z,21504.00
2019-02-12T11:27:10.741Z,20704.00
2019-02-12T11:28:42.539Z,20480.00
2019-02-12T11:30:14.860Z,20096.00
2019-02-12T11:31:46.576Z,20160.00
2019-02-12T11:33:17.726Z,19584.00
2019-02-12T11:34:49.833Z,19488.00
2019-02-12T11:36:22.234Z,18880.00
2019-02-12T11:37:54.510Z,18688.00
2019-02-12T11:39:25.666Z,18720.00
2019-02-12T11:40:57.137Z,18880.00
2019-02-12T11:44:00.479Z,20064.00
2019-02-12T11:45:32.503Z,20832.00
2019-02-12T11:47:04.725Z,21632.00
2019-02-12T11:48:37.251Z,22240.00
2019-02-12T11:50:08.908Z,22560.00
2019-02-12T11:51:40.852Z,23232.00
2019-02-12T11:53:12.209Z,23808.00
2019-02-12T11:54:44.075Z,24288.00
2019-02-12T11:56:15.657Z,24672.00
2019-02-12T11:57:47.189Z,24992.00
2019-02-12T11:59:19.836Z,25248.00
2019-02-12T12:00:50.775Z,25632.00
2019-02-12T12:02:22.731Z,26496.00
2019-02-12T12:03:54.425Z,28000.00
2019-02-12T12:05:26.761Z,29696.00
2019-02-12T12:06:58.391Z,30304.00
2019-02-12T12:08:29.946Z,30176.00
2019-02-12T12:10:02.643Z,30240.00
2019-02-12T12:11:34.442Z,30720.00
2019-02-12T12:13:05.792Z,31296.00
2019-02-12T12:14:37.677Z,31680.00
2019-02-12T12:16:08.809Z,31904.00
2019-02-12T12:17:40.649Z,32224.00
2019-02-12T12:19:12.423Z,32896.00
2019-02-12T12:20:44.609Z,33856.00
2019-02-12T12:22:16.299Z,34752.00
2019-02-12T12:23:47.864Z,35392.00
2019-02-12T12:25:20.194Z,36192.00
2019-02-12T12:26:51.709Z,36672.00
2019-02-12T12:28:23.360Z,39936.00
2019-02-12T12:29:55.172Z,42848.00
2019-02-12T12:31:27.328Z,39584.00
2019-02-12T12:32:58.940Z,39200.00
2019-02-12T12:34:30.642Z,39776.00
2019-02-12T12:36:02.700Z,43520.00
2019-02-12T12:37:34.440Z,38400.00
2019-02-12T12:39:06.358Z,37920.00
2019-02-12T12:40:37.888Z,37824.00
2019-02-12T12:42:09.790Z,37504.00
2019-02-12T12:43:41.611Z,37248.00
2019-02-12T12:45:13.557Z,37376.00
2019-02-12T12:46:45.423Z,36864.00
2019-02-12T12:48:17.156Z,37184.00
2019-02-12T12:51:21.012Z,41088.00
2019-02-12T12:52:52.810Z,38624.00
2019-02-12T12:55:56.848Z,38272.00
2019-02-12T12:57:28.117Z,38400.00
2019-02-12T12:59:00.702Z,39072.00
2019-02-12T13:00:31.601Z,39840.00
2019-02-12T13:02:03.643Z,40736.00
2019-02-12T13:03:35.269Z,40800.00
2019-02-12T13:05:07.353Z,41216.00
2019-02-12T13:06:39.630Z,41536.00
2019-02-12T13:08:10.909Z,42144.00
2019-02-12T13:09:43.180Z,42752.00
2019-02-12T13:11:14.954Z,43200.00
2019-02-12T13:12:46.911Z,43616.00
2019-02-12T13:14:18.412Z,44256.00
2019-02-12T13:15:51.197Z,46016.00
2019-02-12T13:17:22.830Z,45024.00
2019-02-12T13:18:54.113Z,43200.00
2019-02-12T13:20:27.045Z,41664.00
2019-02-12T13:21:58.706Z,41280.00
2019-02-12T13:23:29.306Z,40832.00
2019-02-12T13:25:08.187Z,40256.00
2019-02-12T13:26:33.194Z,39424.00
2019-02-12T13:28:04.905Z,38464.00
2019-02-12T13:31:08.858Z,36992.00
2019-02-12T13:32:40.743Z,36608.00
2019-02-12T13:34:12.033Z,36096.00
2019-02-12T13:35:43.696Z,35584.00
2019-02-12T13:37:16.423Z,35200.00
2019-02-12T13:40:19.764Z,34240.00
2019-02-12T13:41:51.154Z,33728.00
2019-02-12T13:43:23.046Z,33312.00
2019-02-12T13:44:54.833Z,33216.00
2019-02-12T13:46:26.375Z,33696.00
2019-02-12T13:47:58.635Z,34688.00
2019-02-12T13:49:30.281Z,36160.00
2019-02-12T13:51:02.197Z,37696.00
2019-02-12T13:52:33.825Z,39008.00
2019-02-12T13:54:05.463Z,40224.00
2019-02-12T13:55:38.045Z,41376.00
2019-02-12T13:57:09.079Z,42240.00
2019-02-12T13:58:41.477Z,42624.00
2019-02-12T14:00:13.328Z,42656.00
2019-02-12T14:01:45.398Z,42592.00
2019-02-12T14:03:22.299Z,42592.00
2019-02-12T14:04:48.307Z,42816.00
2019-02-12T14:06:20.158Z,43072.00
2019-02-12T14:07:51.946Z,43072.00
2019-02-12T14:09:23.742Z,42624.00
2019-02-12T14:10:57.636Z,41952.00
2019-02-12T14:12:28.374Z,41472.00
2019-02-12T14:13:59.612Z,41056.00
2019-02-12T14:15:31.202Z,40640.00
2019-02-12T14:17:03.419Z,40096.00
2019-02-12T14:18:34.677Z,39488.00
2019-02-12T14:20:06.495Z,38944.00
2019-02-12T14:21:38.860Z,38464.00
2019-02-12T14:23:10.242Z,37888.00
2019-02-12T14:24:42.106Z,37248.00
2019-02-12T14:26:14.256Z,36608.00
2019-02-12T14:27:45.562Z,36096.00
2019-02-12T14:30:49.455Z,35328.00
2019-02-12T14:33:53.121Z,33920.00
2019-02-12T14:35:24.820Z,32960.00
2019-02-12T14:36:57.151Z,32096.00
2019-02-12T14:38:28.446Z,31712.00
2019-02-12T14:40:00.405Z,32032.00
2019-02-12T14:41:32.619Z,33120.00
2019-02-12T14:43:04.555Z,34720.00
2019-02-12T14:44:35.813Z,36544.00
2019-02-12T14:46:08.531Z,38400.00
2019-02-12T14:47:39.205Z,39872.00
2019-02-12T14:49:11.332Z,41088.00
2019-02-12T14:50:43.341Z,42304.00
2019-02-12T14:52:14.674Z,43648.00
2019-02-12T14:53:47.526Z,45056.00
2019-02-12T14:55:19.727Z,46240.00
2019-02-12T14:56:50.630Z,46432.00
2019-02-12T14:58:25.359Z,46080.00
2019-02-12T14:59:55.095Z,45536.00
2019-02-12T15:01:25.743Z,45856.00
2019-02-12T15:03:00.520Z,46464.00
2019-02-12T15:04:29.412Z,47456.00
2019-02-12T15:06:01.583Z,48288.00
2019-02-12T15:07:34.295Z,49696.00
2019-02-12T15:09:06.791Z,51968.00
2019-02-12T15:10:38.283Z,54368.00
2019-02-12T15:12:09.754Z,56160.00
2019-02-12T15:13:40.575Z,57472.00
2019-02-12T15:15:12.397Z,59008.00
2019-02-12T15:16:45.462Z,59584.00
2019-02-12T15:18:17.068Z,58464.00
2019-02-12T15:19:49.268Z,57376.00
2019-02-12T15:21:20.148Z,57536.00
2019-02-12T15:22:51.850Z,56128.00
2019-02-12T15:24:23.559Z,55424.00
2019-02-12T15:25:56.491Z,54976.00
2019-02-12T15:27:28.255Z,54080.00
2019-02-12T15:28:59.344Z,51968.00
2019-02-12T15:30:30.461Z,50400.00
2019-02-12T15:32:02.750Z,49792.00
2019-02-12T15:33:34.544Z,50880.00
2019-02-12T15:35:05.740Z,51904.00
2019-02-12T15:36:39.246Z,52640.00
2019-02-12T15:38:09.509Z,52224.00
2019-02-12T15:39:41.447Z,51904.00
2019-02-12T15:41:13.987Z,51968.00
2019-02-12T15:42:45.591Z,50848.00
2019-02-12T15:44:18.902Z,51104.00
2019-02-12T15:47:22.732Z,46336.00
2019-02-12T15:48:52.158Z,49856.00
2019-02-12T15:50:24.410Z,52672.00
2019-02-12T15:51:56.242Z,42144.00
2019-02-12T15:53:27.857Z,41536.00
2019-02-12T15:55:00.295Z,46752.00
2019-02-12T15:56:31.947Z,51488.00
2019-02-12T15:58:06.302Z,52640.00
2019-02-12T15:59:35.535Z,54880.00
2019-02-12T16:01:07.088Z,62336.00
2019-02-12T16:02:39.683Z,68672.00
2019-02-12T16:04:11.760Z,63648.00
2019-02-12T16:05:42.506Z,68704.00
2019-02-12T16:07:14.535Z,78400.00
2019-02-12T16:08:46.160Z,87584.00
2019-02-12T16:10:19.724Z,98688.00
2019-02-12T16:11:49.851Z,99712.00
2019-02-12T16:13:23.273Z,103008.00
2019-02-12T16:14:53.583Z,80384.00
2019-02-12T16:16:28.061Z,67424.00
2019-02-12T16:17:59.873Z,64672.00
2019-02-12T16:19:31.632Z,64832.00
2019-02-12T16:21:01.661Z,63296.00
2019-02-12T16:22:34.590Z,60992.00
2019-02-12T16:24:06.999Z,63040.00
2019-02-12T16:25:37.219Z,69088.00
2019-02-12T16:27:09.212Z,67968.00
2019-02-12T16:28:40.777Z,64224.00
2019-02-12T16:30:12.201Z,58720.00
2019-02-12T16:31:44.628Z,53952.00
2019-02-12T16:33:16.813Z,51072.00
2019-02-12T16:34:49.002Z,48288.00
2019-02-12T16:36:19.594Z,45152.00
2019-02-12T16:37:53.007Z,42336.00
2019-02-12T16:39:25.274Z,41600.00
2019-02-12T16:40:57.178Z,39808.00
2019-02-12T16:42:27.327Z,38528.00
2019-02-12T16:43:59.965Z,38144.00
2019-02-12T16:45:30.691Z,36320.00
2019-02-12T16:47:03.905Z,34720.00
2019-02-12T16:48:33.655Z,37280.00
2019-02-12T16:50:07.244Z,39104.00
2019-02-12T16:51:39.316Z,39328.00
2019-02-12T16:53:09.892Z,38784.00
2019-02-12T16:54:41.435Z,38560.00
2019-02-12T16:56:13.125Z,37408.00
2019-02-12T16:57:46.125Z,36960.00
2019-02-12T16:59:16.859Z,36640.00
2019-02-12T17:00:48.162Z,36064.00
2019-02-12T17:02:20.230Z,37568.00
2019-02-12T17:03:53.230Z,37120.00
2019-02-12T17:05:25.640Z,36416.00
2019-02-12T17:06:56.333Z,37216.00
2019-02-12T17:08:28.543Z,37600.00
2019-02-12T17:09:59.958Z,37056.00
2019-02-12T17:11:30.757Z,37024.00
2019-02-12T17:13:03.640Z,36288.00
2019-02-12T17:14:36.334Z,36224.00
2019-02-12T17:16:07.197Z,36736.00
2019-02-12T17:17:38.804Z,37696.00
2019-02-12T17:19:11.187Z,39456.00
2019-02-12T17:20:42.087Z,40640.00
2019-02-12T17:22:13.470Z,41600.00
2019-02-12T17:23:46.147Z,42624.00
2019-02-12T17:25:17.411Z,43264.00
2019-02-12T17:26:49.951Z,44000.00
2019-02-12T17:28:20.849Z,44000.00
2019-02-12T17:29:53.272Z,44512.00
2019-02-12T17:31:27.136Z,45344.00
2019-02-12T17:32:57.887Z,45824.00
2019-02-12T17:34:28.770Z,46528.00
2019-02-12T17:36:00.929Z,49024.00
2019-02-12T17:37:33.248Z,52160.00
2019-02-12T17:39:04.087Z,57024.00
2019-02-12T17:40:37.136Z,61152.00
2019-02-12T17:42:07.325Z,61600.00
2019-02-12T17:43:40.753Z,63648.00
2019-02-12T17:45:10.843Z,63168.00
2019-02-12T17:46:42.836Z,73536.00
2019-02-12T17:48:14.655Z,80608.00
2019-02-12T17:49:46.576Z,82560.00
2019-02-12T17:51:18.776Z,85568.00
2019-02-12T17:52:50.528Z,86816.00
2019-02-12T17:54:22.342Z,89248.00
2019-02-12T17:55:54.490Z,88160.00
2019-02-12T17:57:25.887Z,84960.00
2019-02-12T17:58:57.225Z,86432.00
2019-02-12T18:00:29.168Z,86368.00
2019-02-12T18:02:01.184Z,88640.00
2019-02-12T18:03:32.917Z,90240.00
2019-02-12T18:05:05.283Z,90176.00
2019-02-12T18:06:36.354Z,87680.00
2019-02-12T18:08:08.547Z,93184.00
2019-02-12T18:09:40.432Z,100704.00
2019-02-12T18:11:12.497Z,101536.00
2019-02-12T18:12:45.684Z,99552.00
2019-02-12T18:14:17.175Z,94592.00
2019-02-12T18:15:48.890Z,76224.00
2019-02-12T18:17:20.830Z,96768.00
2019-02-12T18:18:52.227Z,85536.00
2019-02-12T18:20:26.593Z,40032.00
2019-02-12T18:21:55.188Z,50176.00
2019-02-12T18:23:26.715Z,64096.00
2019-02-12T18:24:58.876Z,44960.00
2019-02-12T18:26:33.337Z,43904.00
2019-02-12T18:28:01.918Z,42816.00
2019-02-12T18:29:34.160Z,46048.00
2019-02-12T18:31:05.872Z,100832.00
2019-02-12T18:32:37.760Z,104064.00
2019-02-12T18:34:10.765Z,46304.00
2019-02-12T18:35:41.869Z,63456.00
2019-02-12T18:37:13.342Z,69984.00
2019-02-12T18:38:45.273Z,98240.00
2019-02-12T18:40:17.654Z,103552.00
2019-02-12T18:41:49.137Z,100416.00
2019-02-12T18:43:20.882Z,103328.00
2019-02-12T18:44:52.328Z,105472.00
2019-02-12T18:46:24.344Z,104192.00
2019-02-12T18:47:56.603Z,87392.00
2019-02-12T18:49:28.036Z,92032.00
2019-02-12T18:50:59.835Z,96352.00
2019-02-12T18:54:03.018Z,82560.00
2019-02-12T18:55:35.154Z,33984.00
2019-02-12T18:57:06.681Z,27104.00
2019-02-12T18:58:38.554Z,23008.00
2019-02-12T19:00:10.368Z,20544.00
2019-02-12T19:01:42.086Z,19328.00
2019-02-12T19:03:14.502Z,17856.00
2019-02-12T19:04:45.766Z,16764.00
2019-02-12T19:06:17.984Z,16160.00
2019-02-12T19:07:49.416Z,15268.00
2019-02-12T19:09:21.615Z,14180.00
2019-02-12T19:10:53.177Z,12980.00
2019-02-12T19:12:25.180Z,11864.00
2019-02-12T19:13:57.300Z,10944.00
2019-02-12T19:15:28.853Z,10136.00
2019-02-12T19:17:00.610Z,9372.00
2019-02-12T19:18:32.650Z,8792.00
2019-02-12T19:20:05.222Z,8388.00
2019-02-12T19:21:35.973Z,8044.00
2019-02-12T19:23:07.885Z,7828.00
2019-02-12T19:26:12.234Z,7448.00
2019-02-12T19:27:43.204Z,7208.00
2019-02-12T19:30:46.789Z,6544.00
2019-02-12T19:32:19.090Z,6196.00
2019-02-12T19:33:50.781Z,5940.00
2019-02-12T19:35:22.846Z,5816.00
2019-02-12T19:36:55.302Z,5724.00
2019-02-12T19:39:57.815Z,5332.00